METAR / TAF

La lista dei METAR e dei TAF non è pensata per essere utilizzata per i briefing meteorologici (in particolare per ragioni tecniche non è possibile garantire la sua costante disponibilità e un aggiornamento continuo). Per i briefing meteorologici si consiglia di utilizzare lo skybriefing di Skyguide oppure il TAMSI (piattaforma  di MeteoSvizzera per l’autobriefing per i professionisti dell’aviazione – per informazioni utilizzare il formulario di contatto).

 

METAR Svizzera

METAR     LSZH 272020Z 26022G33KT 9999 -RA FEW029 BKN041 04/M01
               Q1007 NOSIG=
METAR     LSZH 272050Z 27016KT 9999 -RA FEW024 SCT032 BKN038 04/M01
               Q1008 NOSIG=
METAR     LSGG 272020Z 19010KT 160V240 9999 FEW025 BKN042 06/M02
               Q1013 NOSIG=
METAR     LSGG 272050Z VRB07KT 9999 FEW025 BKN045 06/M03 Q1014
               NOSIG=
METAR     LFSB 272100Z 27014KT 9999 VCSH FEW008 SCT033 BKN043 05/00
               Q1011 TEMPO 27018G35KT FEW025TCU=
METAR     LSZB 272020Z 26012KT 9999 -RA FEW012 SCT075 BKN085 04/00
               Q1010 REDZ WS ALL RWY NOSIG=
METAR     LSZB 272050Z 26009KT 9999 FEW034 SCT047 OVC090 04/M01
               Q1011 WS ALL RWY NOSIG=
METAR     LSZA 272020Z AUTO 03007KT 350V080 9999 SCT050 SCT060
               04/M01 Q1006=
METAR     LSZA 272050Z AUTO 02009KT 360V070 9999 FEW050 SCT110
               04/M01 Q1006=
METAR     LSZG 272020Z AUTO 27019G31KT 9999 FEW034 BKN055 04/M01
               Q1010 RERA=
METAR     LSZG 272050Z AUTO 31012KT 9999 -RA BKN033 05/M02 Q1011=
METAR     LSZR 272020Z AUTO 27021G33KT 230V300 9999 -RA BKN033
               05/00 Q1004=
METAR     LSZR 272050Z AUTO 26020G34KT 9999 -RA BKN028 04/00 Q1006=
METAR     LSGS 272020Z AUTO VRB04KT 9999 -RASN BKN/// 02/01 Q1009
               RESN=
METAR     LSGS 272050Z AUTO 20005KT 140V270 9999 NCD 03/00 Q1010
               RERASN=
METAR     LSGC 272020Z AUTO 26012G25KT 200V330 9999 -SN BKN009
               M01/M03 Q1009=
METAR     LSGC 272050Z AUTO VRB08KT 9999 -SN OVC009 M01/M03 Q1010=
METAR     LSZC 272020Z AUTO 26019G40KT 220V300 9999 SCT050 07/M04
               Q1008=
METAR     LSZC 272050Z AUTO 25020G31KT 9999 SCT050 SCT060 06/M04
               Q1009=
METAR     LSZL 272020Z AUTO 08004KT 040V120 9999NDV -DZ FEW019
               BKN063 03/02 Q1007 RMK=
METAR     LSZL 272050Z AUTO 10007KT 9999NDV -DZ SCT021 SCT025
               BKN034 03/02 Q1008 RMK=
METAR     LSZS 272020Z AUTO 18010KT 130V230 0400 SN BCFG VV001
               M05/M08 Q1000=
METAR     LSZS 272050Z AUTO 31018G38KT 240V010 0250 HZ FEW027
               M03/M08 Q1001 RESN=
METAR     LSMA 272020Z AUTO 19014G29KT 120V290 9999NDV FEW051
               BKN100 07/M03 Q1009 RMK=
METAR     LSMA 272050Z AUTO 21011G29KT 120V260 9999NDV -SHRA SCT036
               BKN050 06/M03 Q1009 RMK=
METAR     LSMD 272020Z AUTO 27018G34KT 230V350 9999NDV BKN033
               OVC040 05/M01 Q1007 RMK=
METAR     LSMD 272050Z AUTO 28017G30KT 240V300 9999NDV -SHRA BKN032
               BKN037 OVC053 04/M00 Q1008 RMK=
METAR     LSME 272020Z AUTO 26010KT 210V300 9999NDV FEW041 SCT100
               06/M01 Q1009 RMK=
METAR     LSME 272050Z AUTO 27010KT 240V300 9999NDV FEW067 BKN100
               04/M01 Q1010 RMK=
METAR     LSMM 272020Z AUTO 32013KT 280V040 9999NDV SHRA SCT023
               OVC029 04/M00 Q1008 RMK=
METAR     LSMM 272050Z AUTO 29009G25KT 230V360 9999NDV -RA SCT027
               BKN031 OVC043 04/M02 Q1009 RERA RMK=
METAR     LSMP 272020Z 25012KT 9999 -SHRA SCT033 BKN038 OVC046
               04/00 Q1011 RMK BLU=
METAR     LSMP 272050Z 24011KT 200V270 9999 -DZ FEW030 BKN034
               OVC039 04/M01 Q1012 RMK BLU=
aggiornamento giovedì 27 febbraio 2020 ore 22:10

TAF Svizzera

TAF     LSZH 271725Z 2718/2824 22020G35KT 8000 RA FEW012 SCT020
             BKN045 TX07/2814Z TN01/2806Z PROB40 TEMPO 2718/2720
             2500 RASN BKN010 PROB40 TEMPO 2718/2723 25030G45KT
             TEMPO 2723/2805 1500 SHRASN BKN008 BECMG 2805/2808
             25006KT BKN040=
TAF     LSGG 271725Z 2718/2824 24015G25KT 9999 FEW006 SCT020 BKN040
             TX08/2815Z TN00/2806Z BECMG 2720/2723 23004KT PROB30
             TEMPO 2723/2803 1500 SHSN OVC009=
TAF RRA LFSB 271700Z 2718/2818 27025G45KT 9999 FEW020 BKN040 TEMPO
             2718/2722 -SHRA FEW030TCU PROB40 TEMPO 2718/2720
             28035G55KT BECMG 2720/2722 27020G35KT BECMG 2800/2802
             25015G25KT BECMG 2804/2806 24010KT BECMG 2807/2809
             11008KT=
TAF     LSGS 271425Z 2715/2724 VRB03KT 2500 SN BKN012 PROB40 TEMPO
             2717/2724 26015G30KT 0500 VV002=
TAF     LSZA 271425Z 2715/2724 VRB03KT 9999 BKN095 PROB40 2718/2721
             01010KT=
TAF     LSZB 271425Z 2715/2724 VRB03KT 4000 SN SCT005 OVC010 TEMPO
             2715/2717 25018G35KT 1500 -SN BKN005 BECMG 2717/2718
             2000 SHRASN BKN012 TEMPO 2717/2721 30020G45KT BECMG
             2718/2719 6000 SHRA BKN020=
TAF RRA LSZG 271425Z 2715/2724 22005KT 2500 -SN BKN006 BECMG
             2715/2717 24015G30KT TEMPO 2716/2719 25025G40KT 8000
             SHRA BKN020 TEMPO 2718/2724 0800 +SHSN VV003=
TAF RRA LSZL 271725Z 2718/2803 09005KT 9999 -SHRA FEW030 SCT045
             BKN065 PROB40 TEMPO 2723/2803 09015G25KT=
TAF     LSZR 271425Z 2715/2724 24010KT 9999 BKN035 TEMPO 2715/2717
             18015G25KT TEMPO 2715/2716 3000 -SN BKN010 PROB40
             TEMPO 2715/2716 1000 SN VV006 TEMPO 2716/2721 SHRA
             TEMPO 2717/2718 27018G35KT=
TAF     LSGC 271425Z 2715/2724 23010G25KT 5000 -RA BKN009 PROB40
             TEMPO 2717/2724 23020G40KT 0500 SHSN VV002=
TAF RRB LSZC 271425Z 2715/2724 VRB03KT 4200 -SN FEW004 BKN015 TEMPO
             2716/2720 8000 SHRA TEMPO 2716/2724 24015G35KT TEMPO
             2720/2724 0500 +SHSN VV003=
TAF     LSZS 271425Z 2715/2724 21013G25KT 3500 -SN SCT017 OVC030
             TXM03/2716Z TEMPO 2721/2724 0800 SN VV003=
TAF     LSMA 271625Z 2717/2823 06003KT 9999 SCT030 BKN050 BECMG
             2717/2719 24010G25KT TEMPO 2717/2802 3000 SHRASN
             BKN012 TEMPO 2718/2722 25020G40KT BECMG 2806/2809
             VRB03KT=
TAF     LSMD 271625Z 2717/2823 14005KT 9999 SCT030 BKN050 BECMG
             2717/2719 24010G25KT TEMPO 2717/2802 3000 SHRASN
             BKN012 TEMPO 2718/2722 25020G40KT BECMG 2806/2809
             VRB03KT=
TAF     LSME 271625Z 2717/2823 24010G25KT 9999 BKN025 TEMPO
             2717/2802 3000 SHRASN BKN012 TEMPO 2718/2722
             25020G40KT BECMG 2806/2809 VRB03KT=
TAF     LSMM 271625Z 2717/2823 28003KT 7000 -SN SCT025 OVC040 TEMPO
             2717/2723 26020G35KT TEMPO 2717/2802 3000 SHRASN
             BKN012 PROB40 TEMPO 2719/2721 25018G55KT BECMG
             2806/2809 27050KT 9999 BKN040=
TAF     LSMP 271625Z 2717/2823 24020G40KT 9999 SHRA FEW015 BKN030
             BECMG 2717/2719 NSW BECMG 2721/2723 24008KT PROB30
             TEMPO 2723/2803 1500 SHSNRA BKN009=
aggiornamento giovedì 27 febbraio 2020 ore 20:06